createdAt,value
2017-10-19T00:00:58.494Z,99.90
2017-10-19T00:03:27.498Z,99.90
2017-10-19T00:05:56.601Z,99.90
2017-10-19T00:08:24.846Z,99.90
2017-10-19T00:10:53.097Z,99.90
2017-10-19T00:13:21.341Z,99.90
2017-10-19T00:15:49.590Z,99.90
2017-10-19T00:18:18.706Z,99.90
2017-10-19T00:20:46.954Z,99.90
2017-10-19T00:23:15.962Z,99.90
2017-10-19T00:25:44.973Z,99.90
2017-10-19T00:28:13.210Z,99.90
2017-10-19T00:30:41.457Z,99.90
2017-10-19T00:33:09.706Z,99.90
2017-10-19T00:35:37.957Z,99.90
2017-10-19T00:38:06.957Z,99.90
2017-10-19T00:40:35.209Z,99.90
2017-10-19T00:43:04.220Z,99.90
2017-10-19T00:45:32.470Z,99.90
2017-10-19T00:48:00.709Z,99.90
2017-10-19T00:50:28.958Z,99.90
2017-10-19T00:52:57.201Z,99.90
2017-10-19T00:55:26.223Z,99.90
2017-10-19T00:57:54.495Z,99.90
2017-10-19T01:00:22.748Z,99.90
2017-10-19T01:02:50.997Z,99.90
2017-10-19T02:19:57.954Z,99.90
2017-10-19T02:22:26.209Z,99.90
2017-10-19T02:24:54.448Z,99.90
2017-10-19T02:27:23.471Z,99.90
2017-10-19T02:29:51.725Z,99.90
2017-10-19T02:32:20.006Z,99.90
2017-10-19T02:34:48.262Z,99.90
2017-10-19T02:37:17.374Z,99.90
2017-10-19T02:39:45.618Z,99.90
2017-10-19T02:42:13.870Z,99.90
2017-10-19T02:44:42.109Z,99.90
2017-10-19T02:47:10.363Z,99.90
2017-10-19T02:49:39.373Z,99.90
2017-10-19T02:52:07.646Z,99.90
2017-10-19T02:54:35.892Z,99.90
2017-10-19T02:57:04.137Z,99.90
2017-10-19T02:59:32.382Z,99.90
2017-10-19T03:02:00.637Z,99.90
2017-10-19T03:04:28.882Z,99.90
2017-10-19T03:06:57.198Z,99.90
2017-10-19T03:09:25.442Z,99.90
2017-10-19T03:11:53.705Z,99.90
2017-10-19T03:14:21.952Z,99.90
2017-10-19T03:16:50.203Z,99.90
2017-10-19T03:19:18.446Z,99.90
2017-10-19T03:21:47.462Z,99.90
2017-10-19T03:24:15.709Z,99.90
2017-10-19T03:26:44.014Z,99.90
2017-10-19T03:29:12.261Z,99.90
2017-10-19T03:31:40.566Z,99.90
2017-10-19T03:34:08.811Z,99.90
2017-10-19T03:36:37.838Z,99.90
2017-10-19T03:39:06.088Z,99.90
2017-10-19T03:41:34.394Z,99.90
2017-10-19T03:44:02.633Z,99.90
2017-10-19T03:46:30.937Z,99.90
2017-10-19T03:48:59.185Z,99.90
2017-10-19T03:51:27.494Z,99.90
2017-10-19T03:53:55.738Z,99.90
2017-10-19T03:56:23.989Z,99.90
2017-10-19T03:58:52.237Z,99.90
2017-10-19T04:01:20.600Z,99.90
2017-10-19T04:03:48.844Z,99.90
2017-10-19T04:06:17.091Z,99.90
2017-10-19T04:08:45.332Z,99.90
2017-10-19T04:11:13.585Z,99.90
2017-10-19T04:13:42.607Z,99.90
2017-10-19T04:16:10.866Z,99.90
2017-10-19T04:18:39.116Z,99.90
2017-10-19T04:21:07.358Z,99.90
2017-10-19T04:23:35.606Z,99.90
2017-10-19T04:26:03.842Z,99.90
2017-10-19T04:28:32.863Z,99.90
2017-10-19T04:31:01.111Z,99.90
2017-10-19T04:33:30.122Z,99.90
2017-10-19T04:35:59.120Z,99.90
2017-10-19T04:38:27.378Z,99.90
2017-10-19T04:40:56.409Z,99.90
2017-10-19T04:43:24.628Z,99.90
2017-10-19T04:45:54.377Z,99.90
2017-10-19T04:48:22.625Z,99.90
2017-10-19T04:50:51.628Z,99.90
2017-10-19T04:53:20.650Z,99.90
2017-10-19T04:55:48.907Z,99.90
2017-10-19T04:58:17.153Z,99.90
2017-10-19T05:00:45.399Z,99.90
2017-10-19T05:03:13.651Z,99.90
2017-10-19T05:05:41.907Z,99.90
2017-10-19T05:08:10.155Z,99.90
2017-10-19T05:10:38.405Z,99.90
2017-10-19T05:13:06.655Z,99.90
2017-10-19T05:15:34.894Z,99.90
2017-10-19T05:18:04.004Z,99.90
2017-10-19T05:20:32.284Z,99.90
2017-10-19T05:23:00.531Z,99.90
2017-10-19T05:25:28.774Z,99.90
2017-10-19T05:27:57.122Z,99.90
2017-10-19T05:30:25.365Z,99.90
2017-10-19T05:32:54.385Z,99.90
2017-10-19T05:35:22.627Z,99.90
2017-10-19T05:37:50.881Z,99.90
2017-10-19T05:40:19.116Z,99.90
2017-10-19T05:42:47.374Z,99.90
2017-10-19T05:45:16.380Z,99.90
2017-10-19T05:47:44.650Z,99.90
2017-10-19T05:50:12.929Z,99.90
2017-10-19T05:52:41.189Z,99.90
2017-10-19T05:55:10.199Z,99.90
2017-10-19T05:57:38.455Z,99.90
2017-10-19T06:00:07.462Z,99.90
2017-10-19T06:02:35.734Z,99.90
2017-10-19T06:05:03.981Z,99.90
2017-10-19T06:07:32.239Z,99.90
2017-10-19T06:10:00.486Z,99.90
2017-10-19T06:12:28.738Z,99.90
2017-10-19T06:14:56.989Z,99.90
2017-10-19T06:17:34.015Z,99.90
2017-10-19T06:20:02.269Z,99.90
2017-10-19T06:22:30.528Z,99.90
2017-10-19T06:24:59.537Z,99.90
2017-10-19T06:27:27.794Z,99.90
2017-10-19T06:29:56.090Z,99.90
2017-10-19T06:32:24.363Z,99.90
2017-10-19T06:34:52.611Z,99.90
2017-10-19T06:37:20.860Z,99.90
2017-10-19T06:39:49.106Z,99.90
2017-10-19T06:42:17.369Z,99.90
2017-10-19T06:44:45.618Z,99.90
2017-10-19T06:47:13.866Z,99.90
2017-10-19T06:49:42.116Z,99.90
2017-10-19T06:52:10.368Z,99.90
2017-10-19T06:54:38.641Z,99.90
2017-10-19T06:57:06.918Z,99.90
2017-10-19T06:59:35.169Z,99.90
2017-10-19T07:02:04.194Z,99.90
2017-10-19T07:04:32.438Z,99.90
2017-10-19T07:07:01.468Z,99.90
2017-10-19T07:09:29.706Z,99.90
2017-10-19T07:11:57.961Z,99.90
2017-10-19T07:14:26.209Z,99.90
2017-10-19T07:16:54.480Z,99.90
2017-10-19T07:19:22.737Z,99.90
2017-10-19T07:21:50.982Z,99.90
2017-10-19T07:24:20.008Z,99.90
2017-10-19T07:26:48.242Z,99.90
2017-10-19T07:29:16.559Z,99.90
2017-10-19T07:31:44.806Z,99.90
2017-10-19T07:34:13.813Z,99.90
2017-10-19T07:36:42.061Z,99.90
2017-10-19T07:39:10.311Z,99.90
2017-10-19T07:41:38.550Z,99.90
2017-10-19T07:44:06.804Z,99.90
2017-10-19T07:46:35.806Z,99.90
2017-10-19T07:49:04.824Z,99.90
2017-10-19T07:51:33.080Z,99.90
2017-10-19T07:54:01.335Z,99.90
2017-10-19T07:56:30.337Z,99.90
2017-10-19T07:58:59.451Z,99.90
2017-10-19T08:01:27.719Z,99.90
2017-10-19T08:03:56.003Z,99.90
2017-10-19T08:06:24.250Z,99.90
2017-10-19T08:08:53.376Z,99.90
2017-10-19T08:11:21.626Z,99.90
2017-10-19T08:13:50.631Z,99.90
2017-10-19T08:16:18.877Z,99.90
2017-10-19T08:18:47.128Z,99.90
2017-10-19T08:21:15.365Z,99.90
2017-10-19T08:23:43.609Z,99.90
2017-10-19T08:26:12.621Z,99.90
2017-10-19T08:28:41.643Z,99.90
2017-10-19T08:31:09.881Z,99.90
2017-10-19T08:33:38.898Z,99.90
2017-10-19T08:36:07.138Z,99.90
2017-10-19T08:38:35.388Z,99.90
2017-10-19T08:41:03.631Z,99.90
2017-10-19T08:43:31.878Z,99.90
2017-10-19T08:46:00.120Z,99.90
2017-10-19T08:48:28.370Z,99.90
2017-10-19T08:50:56.613Z,99.90
2017-10-19T08:53:25.640Z,99.90
2017-10-19T08:55:53.887Z,99.90
2017-10-19T08:58:22.132Z,99.90
2017-10-19T09:00:51.148Z,99.90
2017-10-19T09:03:19.399Z,99.90
2017-10-19T09:05:48.413Z,99.90
2017-10-19T09:08:16.673Z,99.90
2017-10-19T09:10:45.687Z,99.90
2017-10-19T09:13:13.953Z,99.90
2017-10-19T09:15:42.968Z,99.90
2017-10-19T09:18:11.331Z,99.90
2017-10-19T09:20:39.581Z,99.90
2017-10-19T09:23:08.612Z,99.90
2017-10-19T09:25:36.862Z,99.90
2017-10-19T09:28:05.975Z,99.90
2017-10-19T09:30:34.222Z,99.90
2017-10-19T09:33:03.252Z,99.90
2017-10-19T09:35:31.513Z,99.90
2017-10-19T09:37:59.771Z,99.90
2017-10-19T09:40:28.890Z,99.90
2017-10-19T09:42:57.146Z,99.90
2017-10-19T09:45:26.168Z,99.90
2017-10-19T09:47:54.418Z,99.90
2017-10-19T09:50:23.437Z,99.90
2017-10-19T09:52:51.693Z,99.90
2017-10-19T09:55:19.946Z,99.90
2017-10-19T09:57:48.970Z,99.90
2017-10-19T10:00:17.222Z,99.90
2017-10-19T10:02:46.228Z,99.90
2017-10-19T10:05:14.483Z,99.90
2017-10-19T10:07:42.737Z,99.90
2017-10-19T10:10:10.989Z,99.90
2017-10-19T10:12:39.233Z,99.90
2017-10-19T10:15:07.486Z,99.90
2017-10-19T10:17:36.505Z,99.90
2017-10-19T10:20:04.765Z,99.90
2017-10-19T10:22:33.782Z,99.90
2017-10-19T10:25:02.047Z,99.90
2017-10-19T10:27:30.289Z,99.90
2017-10-19T10:29:59.310Z,99.90
2017-10-19T10:32:28.317Z,99.90
2017-10-19T10:34:56.579Z,99.90
2017-10-19T10:37:25.595Z,99.90
2017-10-19T10:39:53.854Z,99.90
2017-10-19T10:42:22.102Z,99.90
2017-10-19T10:44:50.358Z,99.90
2017-10-19T10:47:18.607Z,99.90
2017-10-19T10:49:46.859Z,99.90
2017-10-19T10:52:15.102Z,99.90
2017-10-19T10:54:43.356Z,99.90
2017-10-19T10:57:11.599Z,99.90
2017-10-19T10:59:39.852Z,99.90
2017-10-19T11:02:08.857Z,99.90
2017-10-19T11:04:37.125Z,99.90
2017-10-19T11:07:05.372Z,99.90
2017-10-19T11:09:33.630Z,99.90
2017-10-19T11:12:01.887Z,99.90
2017-10-19T11:14:30.230Z,99.90
2017-10-19T11:16:58.475Z,99.90
2017-10-19T11:19:26.721Z,99.90
2017-10-19T11:21:54.972Z,99.90
2017-10-19T11:24:23.218Z,99.90
2017-10-19T11:26:52.237Z,99.90
2017-10-19T11:29:20.477Z,99.90
2017-10-19T11:31:49.486Z,99.20
2017-10-19T11:34:17.753Z,99.20
2017-10-19T11:36:46.859Z,99.20
2017-10-19T11:39:15.110Z,99.20
2017-10-19T11:41:44.126Z,98.50
2017-10-19T11:44:12.415Z,98.50
2017-10-19T11:46:40.662Z,98.50
2017-10-19T11:49:09.689Z,99.90
2017-10-19T11:51:37.932Z,99.90
2017-10-19T11:54:06.942Z,97.60
2017-10-19T11:56:35.190Z,97.50
2017-10-19T11:59:03.444Z,97.30
2017-10-19T12:01:32.454Z,98.50
2017-10-19T12:04:00.707Z,98.80
2017-10-19T12:06:28.954Z,99.40
2017-10-19T12:08:57.213Z,99.90
2017-10-19T12:11:25.454Z,99.90
2017-10-19T12:13:54.278Z,99.90
2017-10-19T12:16:22.531Z,99.90
2017-10-19T12:18:51.546Z,99.90
2017-10-19T12:21:19.792Z,99.90
2017-10-19T12:23:48.813Z,99.70
2017-10-19T12:26:17.054Z,99.90
2017-10-19T12:28:45.302Z,98.70
2017-10-19T12:31:13.550Z,97.20
2017-10-19T12:33:41.802Z,97.60
2017-10-19T12:36:10.826Z,98.20
2017-10-19T12:38:39.078Z,98.10
2017-10-19T12:41:07.321Z,99.00
2017-10-19T12:43:35.578Z,99.00
2017-10-19T12:46:03.819Z,99.00
2017-10-19T12:48:32.074Z,98.90
2017-10-19T12:51:01.082Z,97.50
2017-10-19T12:53:29.355Z,97.50
2017-10-19T12:55:57.609Z,96.70
2017-10-19T12:58:26.618Z,95.00
2017-10-19T13:00:54.873Z,95.00
2017-10-19T13:03:23.887Z,93.90
2017-10-19T13:05:52.140Z,93.80
2017-10-19T13:08:21.157Z,93.00
2017-10-19T13:10:49.409Z,93.00
2017-10-19T13:13:18.426Z,91.70
2017-10-19T13:15:46.674Z,91.70
2017-10-19T13:18:15.686Z,90.90
2017-10-19T13:20:44.706Z,90.70
2017-10-19T13:23:12.953Z,90.70
2017-10-19T13:25:41.974Z,91.20
2017-10-19T13:28:10.221Z,91.20
2017-10-19T13:30:39.237Z,91.60
2017-10-19T13:33:07.483Z,91.60
2017-10-19T13:35:36.503Z,90.90
2017-10-19T13:38:04.754Z,90.90
2017-10-19T13:40:33.765Z,91.60
2017-10-19T13:43:02.019Z,91.60
2017-10-19T13:45:31.043Z,90.30
2017-10-19T13:47:59.286Z,90.30
2017-10-19T13:50:28.305Z,91.30
2017-10-19T13:52:56.550Z,91.30
2017-10-19T13:55:25.710Z,91.10
2017-10-19T13:57:53.963Z,91.20
2017-10-19T14:00:22.236Z,91.40
2017-10-19T14:02:50.482Z,92.10
2017-10-19T14:05:19.500Z,90.30
2017-10-19T14:07:47.749Z,90.30
2017-10-19T14:10:16.771Z,90.80
2017-10-19T14:12:45.014Z,90.70
2017-10-19T14:15:14.030Z,90.50
2017-10-19T14:17:42.273Z,90.50
2017-10-19T14:20:11.313Z,93.80
2017-10-19T14:22:39.554Z,93.80
2017-10-19T14:25:08.567Z,93.70
2017-10-19T14:27:36.826Z,93.70
2017-10-19T14:30:05.849Z,93.80
2017-10-19T14:32:34.097Z,93.80
2017-10-19T14:35:02.355Z,93.60
2017-10-19T14:37:30.602Z,93.10
2017-10-19T14:39:58.846Z,92.40
2017-10-19T14:42:27.111Z,92.30
2017-10-19T14:44:55.349Z,92.10
2017-10-19T14:47:23.609Z,91.80
2017-10-19T14:49:51.857Z,91.50
2017-10-19T14:52:20.315Z,90.90
2017-10-19T14:54:48.558Z,90.70
2017-10-19T14:57:16.800Z,92.00
2017-10-19T14:59:45.054Z,91.50
2017-10-19T15:02:13.302Z,92.50
2017-10-19T15:04:42.332Z,92.50
2017-10-19T15:07:10.575Z,92.40
2017-10-19T15:09:39.597Z,93.50
2017-10-19T15:12:07.846Z,93.50
2017-10-19T15:14:36.231Z,94.00
2017-10-19T15:17:04.483Z,94.00
2017-10-19T15:19:33.503Z,94.40
2017-10-19T15:22:01.757Z,94.40
2017-10-19T15:24:30.781Z,96.60
2017-10-19T15:26:59.027Z,96.50
2017-10-19T15:29:28.061Z,98.10
2017-10-19T15:31:56.315Z,98.10
2017-10-19T15:34:24.573Z,98.00
2017-10-19T15:36:53.582Z,98.10
2017-10-19T15:39:22.061Z,98.00
2017-10-19T15:41:50.311Z,98.80
2017-10-19T15:44:19.320Z,99.10
2017-10-19T15:46:47.579Z,99.30
2017-10-19T15:49:16.590Z,99.40
2017-10-19T15:51:44.845Z,99.30
2017-10-19T15:54:13.094Z,99.50
2017-10-19T15:56:41.357Z,99.70
2017-10-19T15:59:09.606Z,99.70
2017-10-19T16:01:37.859Z,99.60
2017-10-19T16:04:06.879Z,99.90
2017-10-19T16:06:35.128Z,99.80
2017-10-19T16:09:04.142Z,99.90
2017-10-19T16:11:32.401Z,99.90
2017-10-19T16:14:00.645Z,99.90
2017-10-19T16:16:29.669Z,99.90
2017-10-19T16:18:58.682Z,99.90
2017-10-19T16:21:26.928Z,99.90
2017-10-19T16:23:55.951Z,99.90
2017-10-19T16:26:24.203Z,99.90
2017-10-19T16:28:53.224Z,99.90
2017-10-19T16:31:21.474Z,99.90
2017-10-19T16:33:50.588Z,99.90
2017-10-19T16:36:18.826Z,99.90
2017-10-19T16:38:47.853Z,99.90
2017-10-19T16:41:16.092Z,99.90
2017-10-19T16:43:44.350Z,99.90
2017-10-19T16:46:12.597Z,99.90
2017-10-19T16:48:40.863Z,99.90
2017-10-19T16:51:09.118Z,99.90
2017-10-19T16:53:37.372Z,99.90
2017-10-19T16:56:06.394Z,99.90
2017-10-19T16:58:34.645Z,99.90
2017-10-19T17:01:03.667Z,99.90
2017-10-19T17:03:31.914Z,99.90
2017-10-19T17:06:00.939Z,99.90
2017-10-19T17:08:29.182Z,99.90
2017-10-19T17:10:58.210Z,99.90
2017-10-19T17:13:26.462Z,99.90
2017-10-19T17:15:54.765Z,99.90
2017-10-19T17:18:23.002Z,99.90
2017-10-19T17:20:52.025Z,99.90
2017-10-19T17:23:20.274Z,99.90
2017-10-19T17:25:49.299Z,99.90
2017-10-19T17:28:17.547Z,99.90
2017-10-19T17:30:46.567Z,99.90
2017-10-19T17:33:14.822Z,99.90
2017-10-19T17:35:43.086Z,99.90
2017-10-19T17:38:12.114Z,99.90
2017-10-19T17:40:40.579Z,99.90
2017-10-19T17:43:08.829Z,99.90
2017-10-19T17:45:37.848Z,99.90
2017-10-19T17:48:06.093Z,99.90
2017-10-19T17:50:34.354Z,99.90
2017-10-19T17:53:02.619Z,99.90
2017-10-19T17:55:30.868Z,99.90
2017-10-19T17:57:59.890Z,99.90
2017-10-19T18:00:28.134Z,99.90
2017-10-19T18:02:57.246Z,99.90
2017-10-19T18:05:25.494Z,99.90
2017-10-19T18:07:54.518Z,99.90
2017-10-19T18:10:22.767Z,99.90
2017-10-19T18:12:51.789Z,99.90
2017-10-19T18:15:20.047Z,99.90
2017-10-19T18:17:49.072Z,99.90
2017-10-19T18:20:17.318Z,99.90
2017-10-19T18:22:45.809Z,99.90
2017-10-19T18:25:14.057Z,99.90
2017-10-19T18:27:43.079Z,99.90
2017-10-19T18:30:11.337Z,99.90
2017-10-19T18:32:40.347Z,99.90
2017-10-19T18:35:08.605Z,99.90
2017-10-19T18:37:37.628Z,99.90
2017-10-19T18:40:05.883Z,99.90
2017-10-19T18:42:34.901Z,99.90
2017-10-19T18:45:03.163Z,99.90
2017-10-19T18:47:31.407Z,99.90
2017-10-19T18:49:59.663Z,99.90
2017-10-19T18:52:27.911Z,99.90
2017-10-19T18:54:56.166Z,99.90
2017-10-19T18:57:24.425Z,99.90
2017-10-19T18:59:53.433Z,99.90
2017-10-19T19:02:21.704Z,99.90
2017-10-19T19:04:49.957Z,99.90
2017-10-19T19:07:18.970Z,99.90
2017-10-19T19:09:47.235Z,99.90
2017-10-19T19:12:16.255Z,99.90
2017-10-19T19:14:44.515Z,99.90
2017-10-19T19:17:12.769Z,99.90
2017-10-19T19:19:41.785Z,99.90
2017-10-19T19:22:10.041Z,99.90
2017-10-19T19:24:39.257Z,99.90
2017-10-19T19:27:07.519Z,99.90
2017-10-19T19:29:36.530Z,99.90
2017-10-19T19:32:04.796Z,99.90
2017-10-19T19:34:33.802Z,99.90
2017-10-19T19:37:02.059Z,99.90
2017-10-19T19:39:31.084Z,99.90
2017-10-19T19:41:59.339Z,99.90
2017-10-19T19:44:27.589Z,99.90
2017-10-19T19:46:56.617Z,99.90
2017-10-19T19:49:24.871Z,99.90
2017-10-19T19:51:53.897Z,99.90
2017-10-19T19:54:22.146Z,99.90
2017-10-19T19:56:50.410Z,99.90
2017-10-19T19:59:19.423Z,99.90
2017-10-19T20:01:47.678Z,99.90
2017-10-19T20:04:16.701Z,99.90
2017-10-19T20:06:44.966Z,99.90
2017-10-19T20:09:13.218Z,99.90
2017-10-19T20:11:42.243Z,99.90
2017-10-19T20:14:10.495Z,99.90
2017-10-19T20:16:39.518Z,99.90
2017-10-19T20:19:07.770Z,99.90
2017-10-19T20:21:36.031Z,99.90
2017-10-19T20:24:05.043Z,99.90
2017-10-19T20:26:33.533Z,99.90
2017-10-19T20:29:01.777Z,99.90
2017-10-19T20:31:30.790Z,99.90
2017-10-19T20:33:59.047Z,99.90
2017-10-19T20:36:28.068Z,99.90
2017-10-19T20:38:56.343Z,99.90
2017-10-19T20:41:24.616Z,99.90
2017-10-19T20:43:53.244Z,99.90
2017-10-19T20:46:21.495Z,99.90
2017-10-19T20:48:50.075Z,99.90
2017-10-19T20:51:19.033Z,99.90
2017-10-19T20:53:47.528Z,99.90
2017-10-19T20:58:50.457Z,99.90
2017-10-19T21:01:18.756Z,99.90
2017-10-19T21:03:47.006Z,99.90
2017-10-19T21:06:15.258Z,99.90
2017-10-19T21:08:43.506Z,99.90
2017-10-19T21:11:12.629Z,99.90
2017-10-19T21:13:40.914Z,99.90
2017-10-19T21:16:09.158Z,99.90
2017-10-19T21:18:38.174Z,99.90
2017-10-19T21:21:06.434Z,99.90
2017-10-19T21:23:35.541Z,99.90
2017-10-19T21:26:03.802Z,99.90
2017-10-19T21:28:32.827Z,99.90
2017-10-19T21:31:01.085Z,99.90
2017-10-19T21:33:29.341Z,99.90
2017-10-19T21:35:58.356Z,99.90
2017-10-19T21:38:26.610Z,99.90
2017-10-19T21:40:55.635Z,99.90
2017-10-19T21:43:23.882Z,99.90
2017-10-19T21:45:52.902Z,99.90
2017-10-19T21:48:21.207Z,99.90
2017-10-19T21:50:49.461Z,99.90
2017-10-19T21:53:17.771Z,99.90
2017-10-19T21:55:46.790Z,99.90
2017-10-19T21:58:15.814Z,99.90
2017-10-19T22:00:44.071Z,99.90
2017-10-19T22:03:13.090Z,99.90
2017-10-19T22:05:41.357Z,99.90
2017-10-19T22:08:09.608Z,99.90
2017-10-19T22:10:38.621Z,99.90
2017-10-19T22:13:06.886Z,99.90
2017-10-19T22:15:35.897Z,99.90
2017-10-19T22:18:04.153Z,99.90
2017-10-19T22:20:33.289Z,99.90
2017-10-19T22:29:02.597Z,99.90
2017-10-19T22:31:30.859Z,99.90
2017-10-19T22:33:59.883Z,99.90
2017-10-19T22:36:28.143Z,99.90
2017-10-19T22:38:56.402Z,99.90
2017-10-19T22:41:25.514Z,99.90
2017-10-19T22:43:54.388Z,99.90
2017-10-19T22:46:23.403Z,99.90
2017-10-19T22:48:51.662Z,99.90
2017-10-19T22:51:20.678Z,99.90
2017-10-19T22:53:48.936Z,99.90
2017-10-19T22:56:17.188Z,99.90
2017-10-19T22:58:46.210Z,99.90
2017-10-19T23:01:14.462Z,99.90
2017-10-19T23:03:43.482Z,99.90
2017-10-19T23:06:11.732Z,99.90
2017-10-19T23:08:40.773Z,99.90
2017-10-19T23:11:09.029Z,99.90
2017-10-19T23:13:37.286Z,99.90
2017-10-19T23:16:06.307Z,99.90
2017-10-19T23:18:34.560Z,99.90
2017-10-19T23:21:03.582Z,99.90
2017-10-19T23:23:31.837Z,99.90
2017-10-19T23:26:00.089Z,99.90
2017-10-19T23:28:29.106Z,99.90
2017-10-19T23:30:57.365Z,99.90
2017-10-19T23:33:26.386Z,99.90
2017-10-19T23:35:54.646Z,99.90
2017-10-19T23:38:22.903Z,99.90
2017-10-19T23:40:51.921Z,99.90
2017-10-19T23:43:20.171Z,99.90
2017-10-19T23:45:49.193Z,99.90
2017-10-19T23:48:17.445Z,99.90
2017-10-19T23:50:46.474Z,99.90
2017-10-19T23:53:14.722Z,99.90
2017-10-19T23:55:43.106Z,99.90
2017-10-19T23:58:11.354Z,99.90
